createdAt,value
2023-04-07T00:02:35.413Z,136.40
2023-04-07T00:06:34.361Z,96.00
2023-04-07T00:10:32.398Z,117.30
2023-04-07T00:14:30.360Z,97.10
2023-04-07T00:18:28.503Z,109.30
2023-04-07T00:22:26.398Z,138.70
2023-04-07T00:26:24.521Z,95.20
2023-04-07T00:30:23.504Z,102.10
2023-04-07T00:34:21.372Z,107.60
2023-04-07T00:38:19.366Z,101.70
2023-04-07T00:42:18.342Z,98.40
2023-04-07T00:46:16.314Z,105.70
2023-04-07T00:50:14.530Z,112.40
2023-04-07T00:54:12.302Z,123.80
2023-04-07T00:58:11.400Z,79.10
2023-04-07T01:02:22.527Z,96.00
2023-04-07T01:06:22.308Z,185.90
2023-04-07T01:10:21.301Z,112.50
2023-04-07T01:14:26.290Z,145.30
2023-04-07T01:18:36.295Z,77.80
2023-04-07T01:22:41.352Z,143.70
2023-04-07T01:26:49.271Z,127.70
2023-04-07T01:30:50.265Z,172.00
2023-04-07T01:34:49.255Z,89.40
2023-04-07T01:38:48.270Z,175.10
2023-04-07T01:42:48.362Z,191.20
2023-04-07T01:46:46.330Z,119.40
2023-04-07T01:50:44.313Z,116.20
2023-04-07T01:54:43.371Z,105.50
2023-04-07T01:58:41.297Z,126.30
2023-04-07T02:02:41.512Z,112.30
2023-04-07T02:06:45.222Z,185.90
2023-04-07T02:10:44.252Z,115.60
2023-04-07T02:14:43.270Z,113.20
2023-04-07T02:18:42.220Z,145.00
2023-04-07T02:22:40.193Z,108.20
2023-04-07T02:26:38.181Z,112.30
2023-04-07T02:30:36.202Z,157.50
2023-04-07T02:34:34.272Z,142.90
2023-04-07T02:38:32.250Z,117.90
2023-04-07T02:42:30.233Z,138.00
2023-04-07T02:46:29.317Z,289.90
2023-04-07T02:50:27.206Z,194.10
2023-04-07T02:54:25.184Z,167.90
2023-04-07T02:58:24.273Z,112.80
2023-04-07T03:02:22.529Z,162.70
2023-04-07T03:06:20.142Z,200.50
2023-04-07T03:10:25.194Z,195.10
2023-04-07T03:14:23.269Z,157.90
2023-04-07T03:18:21.100Z,160.20
2023-04-07T03:22:24.162Z,118.40
2023-04-07T03:26:22.223Z,123.60
2023-04-07T03:30:22.151Z,112.50
2023-04-07T03:34:20.132Z,116.60
2023-04-07T03:38:18.210Z,102.70
2023-04-07T03:42:18.064Z,98.30
2023-04-07T03:46:20.169Z,86.50
2023-04-07T03:50:18.064Z,99.50
2023-04-07T03:54:22.070Z,88.50
2023-04-07T03:58:20.054Z,87.90
2023-04-07T04:02:18.304Z,87.80
2023-04-07T04:06:17.052Z,79.10
2023-04-07T04:10:15.114Z,60.90
2023-04-07T04:14:15.173Z,66.90
2023-04-07T04:18:17.250Z,65.30
2023-04-07T04:22:16.024Z,57.50
2023-04-07T04:26:17.098Z,64.90
2023-04-07T04:30:15.084Z,64.30
2023-04-07T04:34:19.100Z,69.00
2023-04-07T04:38:19.134Z,68.80
2023-04-07T04:42:40.054Z,70.60
2023-04-07T04:46:38.056Z,71.80
2023-04-07T04:50:36.019Z,73.90
2023-04-07T04:54:36.028Z,68.00
2023-04-07T04:58:35.103Z,67.10
2023-04-07T05:02:33.095Z,64.30
2023-04-07T05:06:31.022Z,63.90
2023-04-07T05:10:32.050Z,61.00
2023-04-07T05:14:30.968Z,60.80
2023-04-07T05:18:30.962Z,67.90
2023-04-07T05:22:29.210Z,55.40
2023-04-07T05:26:35.025Z,59.50
2023-04-07T05:30:33.092Z,59.70
2023-04-07T05:34:30.939Z,62.20
2023-04-07T05:38:28.948Z,68.80
2023-04-07T05:42:32.968Z,71.00
2023-04-07T05:46:32.075Z,61.20
2023-04-07T05:50:30.051Z,59.60
2023-04-07T05:54:29.926Z,49.20
2023-04-07T05:58:28.988Z,52.30
2023-04-07T06:02:06.725Z,50.70
2023-04-07T06:05:31.441Z,54.50
2023-04-07T06:08:55.570Z,53.50
2023-04-07T06:12:20.646Z,52.10
2023-04-07T06:15:45.892Z,53.00
2023-04-07T06:19:09.876Z,51.20
2023-04-07T06:22:33.861Z,53.70
2023-04-07T06:25:58.046Z,55.80
2023-04-07T06:29:22.124Z,53.30
2023-04-07T06:32:47.023Z,48.90
2023-04-07T06:36:11.109Z,54.50
2023-04-07T06:39:35.098Z,49.90
2023-04-07T06:42:59.071Z,48.20
2023-04-07T06:46:33.242Z,54.30
2023-04-07T06:49:57.209Z,46.20
2023-04-07T06:53:21.059Z,48.30
2023-04-07T06:56:45.301Z,51.80
2023-04-07T07:00:10.220Z,48.80
2023-04-07T07:03:34.404Z,44.00
2023-04-07T07:06:58.324Z,45.40
2023-04-07T07:10:22.860Z,46.40
2023-04-07T07:13:48.149Z,48.20
2023-04-07T07:17:12.054Z,39.60
2023-04-07T07:20:35.907Z,34.00
2023-04-07T07:23:59.779Z,34.00
2023-04-07T07:27:23.693Z,40.50
2023-04-07T07:30:47.573Z,36.90
2023-04-07T07:34:11.398Z,42.90
2023-04-07T07:37:35.988Z,36.90
2023-04-07T07:40:59.715Z,27.20
2023-04-07T07:44:23.912Z,24.00
2023-04-07T07:47:47.876Z,19.30
2023-04-07T07:51:12.127Z,21.10
2023-04-07T07:54:36.055Z,18.60
2023-04-07T07:57:59.954Z,20.20
2023-04-07T08:01:23.911Z,19.30
2023-04-07T08:04:48.106Z,15.00
2023-04-07T08:08:12.133Z,15.20
2023-04-07T08:11:36.154Z,15.50
2023-04-07T08:15:00.127Z,13.20
2023-04-07T08:18:25.409Z,14.20
2023-04-07T08:21:49.184Z,15.00
2023-04-07T08:25:13.167Z,14.20
2023-04-07T08:28:39.566Z,14.30
2023-04-07T08:32:03.587Z,14.50
2023-04-07T08:35:27.493Z,12.70
2023-04-07T08:38:51.473Z,13.30
2023-04-07T08:42:17.761Z,14.40
2023-04-07T08:45:43.506Z,13.30
2023-04-07T08:49:14.050Z,8.60
2023-04-07T08:52:57.898Z,9.30
2023-04-07T08:56:22.056Z,6.40
2023-04-07T08:59:49.129Z,8.90
2023-04-07T09:03:13.265Z,7.50
2023-04-07T09:06:39.781Z,6.80
2023-04-07T09:10:04.702Z,8.70
2023-04-07T09:13:28.577Z,6.10
2023-04-07T09:16:52.539Z,6.80
2023-04-07T09:20:16.466Z,6.60
2023-04-07T09:23:42.267Z,4.80
2023-04-07T09:27:17.531Z,6.70
2023-04-07T09:30:54.274Z,7.20
2023-04-07T09:34:43.285Z,6.90
2023-04-07T09:38:11.361Z,9.70
2023-04-07T09:41:35.282Z,7.10
2023-04-07T09:45:02.852Z,9.10
2023-04-07T09:48:26.949Z,8.10
2023-04-07T09:52:07.811Z,6.30
2023-04-07T09:55:34.043Z,9.10
2023-04-07T09:58:58.813Z,7.00
2023-04-07T10:02:23.848Z,8.20
2023-04-07T10:05:48.612Z,4.90
2023-04-07T10:09:12.997Z,6.50
2023-04-07T10:12:39.308Z,9.80
2023-04-07T10:16:08.609Z,8.50
2023-04-07T10:19:34.710Z,13.70
2023-04-07T10:23:09.512Z,10.20
2023-04-07T10:26:37.020Z,11.80
2023-04-07T10:30:02.402Z,14.00
2023-04-07T10:33:46.644Z,13.30
2023-04-07T10:37:14.327Z,12.00
2023-04-07T10:40:39.197Z,10.50
2023-04-07T10:44:04.267Z,15.90
2023-04-07T10:47:28.369Z,12.50
2023-04-07T10:51:08.542Z,11.10
2023-04-07T10:54:32.500Z,10.00
2023-04-07T10:58:15.237Z,11.80
2023-04-07T11:01:39.092Z,12.70
2023-04-07T11:05:03.886Z,11.10
2023-04-07T11:08:35.061Z,13.30
2023-04-07T11:11:58.938Z,10.80
2023-04-07T11:15:23.508Z,8.30
2023-04-07T11:18:49.026Z,7.20
2023-04-07T11:25:48.895Z,7.50
2023-04-07T11:29:13.640Z,6.70
2023-04-07T11:32:38.537Z,8.90
2023-04-07T11:36:04.041Z,9.10
2023-04-07T11:42:56.691Z,8.30
2023-04-07T11:46:21.740Z,8.30
2023-04-07T11:49:47.440Z,8.30
2023-04-07T11:53:11.839Z,7.90
2023-04-07T11:56:46.757Z,8.90
2023-04-07T12:00:13.564Z,9.60
2023-04-07T12:03:39.138Z,8.80
2023-04-07T12:07:13.097Z,9.60
2023-04-07T12:10:37.019Z,6.70
2023-04-07T12:14:02.219Z,10.30
2023-04-07T12:17:28.313Z,6.60
2023-04-07T12:20:52.633Z,9.10
2023-04-07T12:24:17.108Z,8.70
2023-04-07T12:27:43.661Z,10.70
2023-04-07T12:31:08.268Z,8.80
2023-04-07T12:34:32.555Z,7.30
2023-04-07T12:37:56.892Z,13.70
2023-04-07T12:41:20.783Z,11.40
2023-04-07T12:44:44.604Z,12.80
2023-04-07T12:48:08.599Z,12.70
2023-04-07T12:51:33.594Z,12.80
2023-04-07T12:54:58.686Z,14.10
2023-04-07T12:58:22.694Z,7.70
2023-04-07T13:01:47.817Z,10.00
2023-04-07T13:05:14.132Z,7.10
2023-04-07T13:08:38.113Z,5.20
2023-04-07T13:12:02.298Z,6.60
2023-04-07T13:15:26.385Z,7.10
2023-04-07T13:18:50.215Z,5.80
2023-04-07T13:22:18.276Z,7.60
2023-04-07T13:25:45.596Z,9.00
2023-04-07T13:29:09.387Z,5.50
2023-04-07T13:32:55.337Z,9.20
2023-04-07T13:36:53.415Z,6.20
2023-04-07T13:40:51.357Z,9.30
2023-04-07T13:44:52.388Z,7.90
2023-04-07T13:48:50.330Z,5.60
2023-04-07T13:52:48.366Z,5.00
2023-04-07T13:56:47.302Z,5.50
2023-04-07T14:00:45.326Z,6.10
2023-04-07T14:04:43.425Z,4.60
2023-04-07T14:08:42.327Z,4.20
2023-04-07T14:12:41.405Z,4.70
2023-04-07T14:16:39.381Z,6.30
2023-04-07T14:20:37.311Z,6.60
2023-04-07T14:24:35.296Z,8.40
2023-04-07T14:28:33.268Z,6.50
2023-04-07T14:32:31.425Z,8.80
2023-04-07T14:36:30.253Z,9.70
2023-04-07T14:40:28.322Z,12.90
2023-04-07T14:44:26.465Z,12.70
2023-04-07T14:48:25.256Z,14.80
2023-04-07T14:52:23.339Z,12.00
2023-04-07T14:56:21.274Z,14.70
2023-04-07T15:00:20.248Z,12.20
2023-04-07T15:04:18.345Z,15.10
2023-04-07T15:08:16.246Z,16.60
2023-04-07T15:12:14.268Z,18.10
2023-04-07T15:16:20.389Z,16.50
2023-04-07T15:20:19.233Z,17.90
2023-04-07T15:24:17.250Z,19.50
2023-04-07T15:28:15.261Z,21.70
2023-04-07T15:32:13.265Z,23.80
2023-04-07T15:36:11.278Z,17.70
2023-04-07T15:40:09.240Z,15.30
2023-04-07T15:44:07.252Z,18.30
2023-04-07T15:48:07.273Z,16.20
2023-04-07T15:52:05.207Z,18.10
2023-04-07T15:56:03.185Z,19.70
2023-04-07T16:00:01.181Z,19.50
2023-04-07T16:03:59.370Z,18.10
2023-04-07T16:07:57.240Z,17.50
2023-04-07T16:11:55.223Z,15.60
2023-04-07T16:15:53.191Z,17.60
2023-04-07T16:19:51.163Z,17.80
2023-04-07T16:23:49.443Z,19.80
2023-04-07T16:27:47.290Z,17.80
2023-04-07T16:31:46.182Z,19.20
2023-04-07T16:35:44.144Z,17.40
2023-04-07T16:39:42.195Z,18.30
2023-04-07T16:43:40.165Z,19.00
2023-04-07T16:47:39.301Z,20.70
2023-04-07T16:51:37.081Z,22.00
2023-04-07T16:55:35.235Z,24.60
2023-04-07T16:59:33.119Z,21.10
2023-04-07T17:03:31.323Z,21.10
2023-04-07T17:07:29.083Z,17.70
2023-04-07T17:11:28.127Z,22.60
2023-04-07T17:15:27.172Z,21.10
2023-04-07T17:19:25.146Z,24.50
2023-04-07T17:23:23.024Z,26.40
2023-04-07T17:27:21.200Z,25.60
2023-04-07T17:31:19.077Z,30.50
2023-04-07T17:35:17.268Z,21.60
2023-04-07T17:39:16.159Z,22.80
2023-04-07T17:43:14.052Z,21.20
2023-04-07T17:47:12.024Z,19.40
2023-04-07T17:51:10.098Z,25.40
2023-04-07T17:55:08.031Z,22.20
2023-04-07T17:59:06.074Z,19.70
2023-04-07T18:03:04.206Z,24.20
2023-04-07T18:07:02.028Z,21.50
2023-04-07T18:10:59.997Z,19.30
2023-04-07T18:14:58.073Z,21.00
2023-04-07T18:18:56.053Z,19.20
2023-04-07T18:22:54.044Z,21.10
2023-04-07T18:26:51.993Z,18.10
2023-04-07T18:30:50.020Z,19.70
2023-04-07T18:34:47.999Z,20.20
2023-04-07T18:38:46.054Z,18.40
2023-04-07T18:42:44.038Z,18.80
2023-04-07T18:46:42.090Z,21.30
2023-04-07T18:51:06.964Z,18.70
2023-04-07T18:55:05.062Z,20.50
2023-04-07T18:59:02.943Z,19.10
2023-04-07T19:03:01.246Z,15.80
2023-04-07T19:06:59.997Z,17.90
2023-04-07T19:10:57.969Z,22.20
2023-04-07T19:14:55.974Z,22.10
2023-04-07T19:18:53.985Z,22.90
2023-04-07T19:22:53.011Z,24.80
2023-04-07T19:26:50.941Z,18.30
2023-04-07T19:30:48.931Z,20.50
2023-04-07T19:34:46.969Z,18.10
2023-04-07T19:38:44.888Z,21.20
2023-04-07T19:42:45.050Z,21.60
2023-04-07T19:46:42.873Z,21.20
2023-04-07T19:50:47.919Z,18.70
2023-04-07T19:54:45.948Z,24.60
2023-04-07T19:58:44.950Z,20.80
2023-04-07T20:02:43.007Z,20.80
2023-04-07T20:06:42.864Z,21.40
2023-04-07T20:10:40.936Z,19.00
2023-04-07T20:14:38.859Z,19.90
2023-04-07T20:18:37.835Z,19.80
2023-04-07T20:22:35.863Z,19.30
2023-04-07T20:26:33.827Z,18.30
2023-04-07T20:30:31.889Z,17.10
2023-04-07T20:34:29.845Z,18.00
2023-04-07T20:38:27.976Z,18.20
2023-04-07T20:42:25.901Z,17.50
2023-04-07T20:46:23.913Z,18.60
2023-04-07T20:50:21.851Z,21.10
2023-04-07T20:54:19.969Z,21.20
2023-04-07T20:58:17.833Z,20.90
2023-04-07T21:02:16.238Z,21.20
2023-04-07T21:06:13.734Z,23.10
2023-04-07T21:10:11.890Z,17.90
2023-04-07T21:14:09.831Z,20.10
2023-04-07T21:18:07.981Z,19.60
2023-04-07T21:22:05.770Z,17.80
2023-04-07T21:26:03.761Z,19.60
2023-04-07T21:30:01.848Z,18.20
2023-04-07T21:33:59.818Z,20.00
2023-04-07T21:37:57.745Z,25.40
2023-04-07T21:41:55.778Z,23.50
2023-04-07T21:45:53.719Z,23.40
2023-04-07T21:49:53.037Z,23.40
2023-04-07T21:53:50.847Z,21.60
2023-04-07T21:57:49.797Z,22.80
2023-04-07T22:01:47.816Z,25.90
2023-04-07T22:05:45.815Z,25.20
2023-04-07T22:09:43.781Z,24.70
2023-04-07T22:13:41.693Z,25.50
2023-04-07T22:17:39.807Z,23.90
2023-04-07T22:21:37.719Z,29.10
2023-04-07T22:25:35.670Z,29.70
2023-04-07T22:29:33.789Z,26.90
2023-04-07T22:33:31.769Z,27.50
2023-04-07T22:37:29.692Z,29.60
2023-04-07T22:41:27.627Z,25.10
2023-04-07T22:45:25.660Z,30.80
2023-04-07T22:49:23.673Z,28.50
2023-04-07T22:53:21.684Z,30.60
2023-04-07T22:57:19.618Z,28.90
2023-04-07T23:01:17.757Z,26.10
2023-04-07T23:05:16.709Z,31.70
2023-04-07T23:09:14.693Z,29.70
2023-04-07T23:13:15.059Z,31.30
2023-04-07T23:17:12.602Z,31.30
2023-04-07T23:21:10.570Z,34.00
2023-04-07T23:25:08.580Z,32.60
2023-04-07T23:29:06.636Z,34.40
2023-04-07T23:33:04.751Z,34.20
2023-04-07T23:37:02.597Z,36.30
2023-04-07T23:41:00.571Z,36.00
2023-04-07T23:44:59.688Z,37.30
2023-04-07T23:48:57.653Z,38.50
2023-04-07T23:52:55.630Z,41.70
2023-04-07T23:56:53.616Z,41.80
